createdAt,value
2018-07-01T00:00:53.050Z,30.61
2018-07-01T00:01:52.397Z,30.71
2018-07-01T00:02:52.602Z,30.9
2018-07-01T00:03:52.457Z,30.71
2018-07-01T00:04:52.759Z,30.9
2018-07-01T00:05:52.672Z,30.61
2018-07-01T00:06:52.878Z,30.71
2018-07-01T00:07:52.582Z,30.71
2018-07-01T00:08:52.646Z,31
2018-07-01T00:09:52.720Z,31
2018-07-01T00:10:52.719Z,31.09
2018-07-01T00:11:52.653Z,31.09
2018-07-01T00:12:52.811Z,31
2018-07-01T00:13:52.683Z,31.09
2018-07-01T00:14:52.708Z,31.48
2018-07-01T00:15:53.218Z,31.19
2018-07-01T00:16:53.173Z,31.48
2018-07-01T00:17:52.960Z,31.38
2018-07-01T00:18:52.717Z,31.29
2018-07-01T00:19:53.004Z,31.29
2018-07-01T00:20:53.028Z,31.29
2018-07-01T00:21:53.056Z,31.19
2018-07-01T00:22:53.079Z,31.27
2018-07-01T00:23:53.096Z,31.19
2018-07-01T00:24:53.123Z,31.09
2018-07-01T00:25:53.148Z,31.87
2018-07-01T00:26:52.901Z,31.65
2018-07-01T00:27:53.189Z,31.95
2018-07-01T00:28:53.225Z,31.56
2018-07-01T00:29:52.965Z,31.65
2018-07-01T00:30:53.260Z,31.85
2018-07-01T00:31:53.279Z,31.95
2018-07-01T00:32:53.301Z,31.85
2018-07-01T00:33:53.331Z,31.85
2018-07-01T00:34:53.367Z,31.95
2018-07-01T00:35:53.372Z,31.65
2018-07-01T00:36:53.404Z,31.85
2018-07-01T00:37:53.418Z,31.65
2018-07-01T00:38:53.446Z,32.23
2018-07-01T00:39:53.461Z,32.14
2018-07-01T00:40:53.488Z,32.33
2018-07-01T00:41:53.507Z,32.43
2018-07-01T00:42:53.540Z,32.14
2018-07-01T00:43:53.553Z,32.23
2018-07-01T00:44:53.630Z,32.33
2018-07-01T00:45:53.608Z,32.14
2018-07-01T00:46:53.633Z,31.95
2018-07-01T00:47:53.651Z,32.71
2018-07-01T00:48:53.677Z,32.23
2018-07-01T00:49:53.686Z,31.95
2018-07-01T00:50:53.713Z,32.52
2018-07-01T00:51:53.752Z,31.85
2018-07-01T00:52:53.495Z,32.62
2018-07-01T00:53:53.785Z,32.43
2018-07-01T00:54:53.805Z,32.33
2018-07-01T00:55:53.836Z,32.12
2018-07-01T00:56:53.596Z,32.62
2018-07-01T00:57:53.869Z,32.33
2018-07-01T00:58:53.894Z,32.31
2018-07-01T00:59:53.917Z,32.41
2018-07-01T01:00:53.943Z,32.89
2018-07-01T01:03:58.403Z,32.7
2018-07-01T01:04:58.425Z,32.7
2018-07-01T01:05:58.444Z,33.08
2018-07-01T01:06:58.467Z,32.6
2018-07-01T01:07:58.220Z,33.28
2018-07-01T01:08:58.242Z,32.79
2018-07-01T01:09:58.530Z,32.98
2018-07-01T01:10:58.560Z,32.98
2018-07-01T01:11:58.577Z,32.89
2018-07-01T01:12:58.599Z,32.98
2018-07-01T01:13:58.632Z,33.37
2018-07-01T01:14:58.643Z,33.56
2018-07-01T01:15:58.668Z,33.37
2018-07-01T01:16:58.687Z,33.28
2018-07-01T01:17:58.711Z,33.28
2018-07-01T01:18:58.733Z,33.28
2018-07-01T01:19:58.487Z,33.37
2018-07-01T01:20:58.807Z,33.47
2018-07-01T01:21:58.812Z,33.56
2018-07-01T01:22:58.825Z,33.54
2018-07-01T01:23:58.847Z,33.64
2018-07-01T01:24:58.864Z,33.75
2018-07-01T01:25:58.624Z,33.74
2018-07-01T01:26:58.644Z,33.66
2018-07-01T01:27:58.668Z,33.56
2018-07-01T01:28:58.690Z,33.74
2018-07-01T01:29:58.718Z,33.84
2018-07-01T01:30:59.002Z,33.64
2018-07-01T01:31:59.030Z,33.74
2018-07-01T01:32:59.049Z,33.74
2018-07-01T01:33:59.073Z,33.54
2018-07-01T01:34:59.090Z,34.03
2018-07-01T01:35:59.119Z,33.84
2018-07-01T01:36:58.873Z,33.74
2018-07-01T01:37:58.898Z,33.64
2018-07-01T01:38:59.183Z,33.74
2018-07-01T01:39:58.936Z,33.74
2018-07-01T01:40:59.221Z,33.64
2018-07-01T01:41:59.244Z,33.54
2018-07-01T01:42:59.003Z,34.41
2018-07-01T01:43:59.296Z,34.22
2018-07-01T01:44:59.318Z,34.41
2018-07-01T01:45:59.337Z,34.31
2018-07-01T01:46:59.357Z,34.03
2018-07-01T01:47:59.121Z,34.12
2018-07-01T01:48:59.402Z,34.31
2018-07-01T01:49:59.159Z,34.12
2018-07-01T01:50:59.445Z,33.93
2018-07-01T01:51:59.468Z,34.41
2018-07-01T01:52:59.494Z,34.41
2018-07-01T01:53:59.508Z,34.89
2018-07-01T01:54:59.540Z,34.7
2018-07-01T01:55:59.554Z,34.31
2018-07-01T01:56:59.575Z,34.61
2018-07-01T01:57:59.598Z,34.51
2018-07-01T01:58:59.620Z,34.41
2018-07-01T01:59:59.641Z,34.61
2018-07-01T02:00:59.668Z,34.51
2018-07-01T02:01:59.683Z,34.68
2018-07-01T02:02:59.440Z,34.7
2018-07-01T02:03:59.730Z,34.89
2018-07-01T02:04:59.755Z,34.88
2018-07-01T02:05:59.776Z,34.97
2018-07-01T02:06:59.798Z,34.78
2018-07-01T02:07:59.819Z,34.68
2018-07-01T02:08:59.841Z,34.88
2018-07-01T02:09:59.861Z,35.16
2018-07-01T02:10:59.884Z,35.16
2018-07-01T02:11:59.905Z,35.06
2018-07-01T02:12:59.928Z,35.16
2018-07-01T02:13:59.948Z,35.26
2018-07-01T02:14:59.969Z,35.26
2018-07-01T02:15:59.994Z,35.26
2018-07-01T02:17:00.018Z,35.26
2018-07-01T02:18:00.039Z,35.36
2018-07-01T02:18:59.790Z,35.26
2018-07-01T02:20:00.081Z,35.36
2018-07-01T02:21:00.205Z,35.16
2018-07-01T02:22:00.125Z,35.16
2018-07-01T02:23:00.146Z,35.26
2018-07-01T02:23:59.903Z,35.06
2018-07-01T02:25:00.191Z,34.97
2018-07-01T02:25:59.955Z,35.55
2018-07-01T02:27:00.235Z,35.55
2018-07-01T02:28:00.285Z,35.45
2018-07-01T02:29:00.288Z,35.45
2018-07-01T02:30:00.042Z,36.13
2018-07-01T02:31:00.328Z,35.36
2018-07-01T02:32:00.362Z,35.36
2018-07-01T02:33:00.364Z,36.01
2018-07-01T02:34:00.390Z,36.03
2018-07-01T02:35:00.408Z,35.93
2018-07-01T02:36:00.429Z,35.93
2018-07-01T02:37:00.452Z,36.03
2018-07-01T02:38:00.496Z,36.11
2018-07-01T02:39:00.498Z,36.58
2018-07-01T02:40:00.528Z,36.01
2018-07-01T02:41:00.538Z,36.11
2018-07-01T02:42:00.569Z,36.11
2018-07-01T02:43:00.596Z,36.3
2018-07-01T02:44:00.608Z,35.82
2018-07-01T02:45:00.627Z,36.58
2018-07-01T02:46:00.652Z,36.58
2018-07-01T02:47:00.685Z,36.4
2018-07-01T02:48:00.742Z,36.3
2018-07-01T02:49:00.710Z,36.4
2018-07-01T02:50:00.731Z,36.58
2018-07-01T02:51:00.755Z,36.49
2018-07-01T02:52:00.783Z,36.78
2018-07-01T02:53:00.797Z,36.78
2018-07-01T02:54:00.823Z,36.78
2018-07-01T02:55:00.840Z,36.88
2018-07-01T02:56:00.869Z,36.68
2018-07-01T02:57:00.885Z,36.68
2018-07-01T02:58:00.642Z,36.97
2018-07-01T02:59:00.659Z,36.88
2018-07-01T03:00:00.957Z,36.88
2018-07-01T03:01:00.970Z,36.58
2018-07-01T03:02:01.003Z,36.68
2018-07-01T03:03:00.747Z,36.49
2018-07-01T03:04:01.035Z,36.4
2018-07-01T03:05:00.792Z,36.88
2018-07-01T03:06:01.077Z,36.97
2018-07-01T03:07:00.834Z,36.97
2018-07-01T03:08:00.860Z,37.35
2018-07-01T03:09:01.228Z,37.26
2018-07-01T03:10:01.173Z,37.64
2018-07-01T03:11:01.186Z,37.72
2018-07-01T03:12:01.207Z,37.45
2018-07-01T03:13:01.236Z,37.72
2018-07-01T03:14:01.259Z,37.62
2018-07-01T03:15:01.267Z,37.64
2018-07-01T03:16:01.296Z,37.62
2018-07-01T03:17:01.318Z,37.72
2018-07-01T03:18:01.073Z,37.72
2018-07-01T03:19:01.087Z,37.62
2018-07-01T03:20:01.379Z,37.43
2018-07-01T03:21:01.400Z,37.91
2018-07-01T03:22:01.425Z,37.24
2018-07-01T03:23:01.439Z,37.53
2018-07-01T03:24:01.196Z,37.43
2018-07-01T03:25:01.481Z,37.72
2018-07-01T03:26:01.505Z,37.15
2018-07-01T03:27:01.528Z,37.53
2018-07-01T03:28:01.281Z,37.24
2018-07-01T03:29:01.566Z,37.34
2018-07-01T03:30:01.331Z,38.1
2018-07-01T03:31:01.610Z,37.62
2018-07-01T03:32:01.379Z,38.01
2018-07-01T03:33:01.656Z,37.53
2018-07-01T03:34:01.676Z,38.1
2018-07-01T03:35:01.700Z,38.2
2018-07-01T03:36:01.717Z,38.39
2018-07-01T03:37:01.738Z,38.39
2018-07-01T03:38:01.761Z,38.49
2018-07-01T03:39:01.514Z,38.39
2018-07-01T03:40:01.800Z,38.29
2018-07-01T03:41:01.828Z,38.1
2018-07-01T03:42:01.577Z,38.1
2018-07-01T03:43:01.864Z,38.29
2018-07-01T03:44:01.886Z,38.29
2018-07-01T03:45:01.916Z,38.2
2018-07-01T03:46:01.931Z,38.39
2018-07-01T03:47:01.684Z,38.49
2018-07-01T03:48:01.972Z,38.56
2018-07-01T03:49:01.997Z,38.56
2018-07-01T03:50:02.081Z,38.39
2018-07-01T03:51:02.037Z,38.56
2018-07-01T03:52:02.057Z,38.59
2018-07-01T03:53:02.082Z,38.66
2018-07-01T03:54:02.103Z,38.47
2018-07-01T03:55:02.134Z,38.68
2018-07-01T03:56:02.169Z,38.78
2018-07-01T03:57:01.909Z,38.66
2018-07-01T03:58:02.182Z,38.96
2018-07-01T03:59:02.205Z,38.87
2018-07-01T04:00:02.230Z,38.56
2018-07-01T04:01:02.252Z,38.76
2018-07-01T04:02:02.004Z,38.66
2018-07-01T04:03:02.289Z,38.95
2018-07-01T04:04:02.309Z,38.95
2018-07-01T04:05:02.329Z,39.04
2018-07-01T04:06:02.358Z,38.85
2018-07-01T04:07:02.379Z,38.95
2018-07-01T04:08:02.395Z,38.56
2018-07-01T04:09:02.419Z,38.66
2018-07-01T04:10:02.183Z,39.23
2018-07-01T04:11:02.456Z,39.23
2018-07-01T04:12:02.478Z,39.04
2018-07-01T04:13:02.234Z,39.04
2018-07-01T04:14:02.539Z,39.14
2018-07-01T04:15:02.542Z,39.33
2018-07-01T04:16:02.574Z,39.23
2018-07-01T04:17:02.581Z,39.23
2018-07-01T04:18:02.613Z,39.14
2018-07-01T04:19:02.632Z,39.33
2018-07-01T04:20:02.648Z,39.53
2018-07-01T04:21:02.399Z,39.53
2018-07-01T04:22:02.422Z,39.62
2018-07-01T04:23:02.440Z,39.62
2018-07-01T04:24:02.728Z,39.62
2018-07-01T04:25:02.752Z,39.62
2018-07-01T04:26:02.770Z,39.53
2018-07-01T04:27:02.790Z,40.1
2018-07-01T04:28:02.818Z,39.53
2018-07-01T04:29:02.835Z,39.62
2018-07-01T04:30:02.856Z,39.81
2018-07-01T04:31:02.620Z,39.72
2018-07-01T04:32:02.903Z,39.62
2018-07-01T04:33:02.920Z,39.62
2018-07-01T04:34:02.701Z,39.62
2018-07-01T04:35:02.959Z,39.62
2018-07-01T04:36:03.009Z,39.91
2018-07-01T04:37:03.002Z,39.91
2018-07-01T04:38:03.025Z,40.1
2018-07-01T04:39:03.041Z,40
2018-07-01T04:40:03.087Z,40.1
2018-07-01T04:41:03.084Z,40
2018-07-01T04:42:02.856Z,39.91
2018-07-01T04:43:03.128Z,39.91
2018-07-01T04:44:02.908Z,40
2018-07-01T04:45:03.170Z,40.1
2018-07-01T04:46:03.187Z,40
2018-07-01T04:47:03.212Z,40.1
2018-07-01T04:48:03.236Z,40.2
2018-07-01T04:49:03.255Z,39.91
2018-07-01T04:50:03.024Z,40.1
2018-07-01T04:51:03.290Z,40.48
2018-07-01T04:52:03.052Z,40.67
2018-07-01T04:53:03.341Z,40
2018-07-01T04:54:03.355Z,40.58
2018-07-01T04:55:03.595Z,40.58
2018-07-01T04:56:03.416Z,40.39
2018-07-01T04:57:03.150Z,40.48
2018-07-01T04:58:03.232Z,40.48
2018-07-01T04:59:03.458Z,40.39
2018-07-01T05:00:03.484Z,40.2
2018-07-01T05:01:03.499Z,40.1
2018-07-01T05:02:03.601Z,40.29
2018-07-01T05:03:03.546Z,40.48
2018-07-01T05:04:03.305Z,40.39
2018-07-01T05:05:03.587Z,40.39
2018-07-01T05:06:03.675Z,40.39
2018-07-01T05:07:03.649Z,40.39
2018-07-01T05:08:03.650Z,40.39
2018-07-01T05:09:03.670Z,40.29
2018-07-01T05:10:03.698Z,40.39
2018-07-01T05:11:03.442Z,40.29
2018-07-01T05:12:03.878Z,40.48
2018-07-01T05:13:03.750Z,40.29
2018-07-01T05:14:03.775Z,40.39
2018-07-01T05:15:03.792Z,40.48
2018-07-01T05:16:03.812Z,40.48
2018-07-01T05:17:03.868Z,40.58
2018-07-01T05:18:03.603Z,40.29
2018-07-01T05:19:03.878Z,40.29
2018-07-01T05:20:03.649Z,40.39
2018-07-01T05:21:03.647Z,40.29
2018-07-01T05:22:03.669Z,40.29
2018-07-01T05:23:04.139Z,40.39
2018-07-01T05:24:03.937Z,40.1
2018-07-01T05:25:04.000Z,40.29
2018-07-01T05:26:04.018Z,40.29
2018-07-01T05:27:04.399Z,40.39
2018-07-01T05:28:03.793Z,40.58
2018-07-01T05:29:04.140Z,40.2
2018-07-01T05:30:03.835Z,40.39
2018-07-01T05:31:04.130Z,40.77
2018-07-01T05:32:04.156Z,40.39
2018-07-01T05:33:03.900Z,40.48
2018-07-01T05:34:04.187Z,40.39
2018-07-01T05:35:04.305Z,40.29
2018-07-01T05:36:04.229Z,40.67
2018-07-01T05:37:04.250Z,40.48
2018-07-01T05:38:04.267Z,40.67
2018-07-01T05:39:04.295Z,40.39
2018-07-01T05:40:04.044Z,40.29
2018-07-01T05:41:04.333Z,40.58
2018-07-01T05:42:04.085Z,40.39
2018-07-01T05:43:04.120Z,40.39
2018-07-01T05:44:04.128Z,40
2018-07-01T05:45:04.159Z,40.48
2018-07-01T05:46:04.166Z,40.29
2018-07-01T05:47:04.459Z,41.06
2018-07-01T05:48:04.482Z,40.96
2018-07-01T05:49:04.511Z,40.77
2018-07-01T05:50:04.522Z,40.77
2018-07-01T05:51:04.540Z,40.87
2018-07-01T05:52:04.295Z,40.58
2018-07-01T05:53:04.311Z,40.29
2018-07-01T05:54:04.602Z,40.48
2018-07-01T05:55:04.351Z,40.67
2018-07-01T05:56:04.508Z,40.58
2018-07-01T05:57:04.743Z,40.1
2018-07-01T05:58:04.417Z,40.1
2018-07-01T05:59:04.713Z,40.1
2018-07-01T06:00:04.460Z,40.58
2018-07-01T06:01:04.478Z,40.48
2018-07-01T06:02:04.499Z,40.58
2018-07-01T06:03:04.520Z,40.58
2018-07-01T06:04:04.548Z,40.77
2018-07-01T06:05:04.834Z,40.77
2018-07-01T06:06:04.606Z,40.67
2018-07-01T06:07:04.602Z,40.77
2018-07-01T06:08:04.622Z,40.77
2018-07-01T06:09:04.640Z,40.48
2018-07-01T06:10:05.081Z,40.29
2018-07-01T06:11:04.686Z,40.29
2018-07-01T06:12:04.975Z,40.39
2018-07-01T06:13:04.727Z,40.29
2018-07-01T06:14:04.807Z,40.2
2018-07-01T06:15:05.036Z,40.48
2018-07-01T06:16:04.788Z,40.1
2018-07-01T06:17:04.805Z,39.91
2018-07-01T06:18:04.830Z,40
2018-07-01T06:19:05.115Z,40
2018-07-01T06:20:04.870Z,40
2018-07-01T06:21:05.183Z,39.91
2018-07-01T06:22:04.918Z,39.81
2018-07-01T06:23:05.209Z,39.62
2018-07-01T06:24:05.218Z,39.72
2018-07-01T06:25:05.246Z,39.91
2018-07-01T06:26:04.994Z,40
2018-07-01T06:27:05.013Z,40.39
2018-07-01T06:28:05.302Z,39.91
2018-07-01T06:29:05.330Z,39.91
2018-07-01T06:30:05.077Z,39.81
2018-07-01T06:31:05.361Z,39.72
2018-07-01T06:32:05.385Z,39.72
2018-07-01T06:33:05.404Z,39.54
2018-07-01T06:34:05.430Z,39.54
2018-07-01T06:35:05.179Z,39.54
2018-07-01T06:36:05.467Z,39.93
2018-07-01T06:37:05.491Z,39.06
2018-07-01T06:38:05.506Z,38.87
2018-07-01T06:39:05.529Z,39.06
2018-07-01T06:40:05.551Z,38.87
2018-07-01T06:41:05.570Z,38.78
2018-07-01T06:42:05.847Z,38.59
2018-07-01T06:43:05.614Z,38.68
2018-07-01T06:44:05.634Z,38.78
2018-07-01T06:45:05.384Z,38.68
2018-07-01T06:46:05.407Z,38.68
2018-07-01T06:47:05.695Z,38.39
2018-07-01T06:48:05.447Z,38.39
2018-07-01T06:49:05.472Z,38.68
2018-07-01T06:50:05.764Z,38.59
2018-07-01T06:51:05.514Z,38.49
2018-07-01T06:52:05.807Z,38.29
2018-07-01T06:53:05.819Z,38.6
2018-07-01T06:54:05.840Z,38.32
2018-07-01T06:55:05.894Z,38.51
2018-07-01T06:56:05.614Z,38.12
2018-07-01T06:57:05.908Z,37.84
2018-07-01T06:58:05.924Z,37.93
2018-07-01T06:59:05.678Z,37.35
2018-07-01T07:00:05.702Z,37.26
2018-07-01T07:01:05.719Z,37.35
2018-07-01T07:02:06.009Z,37.26
2018-07-01T07:03:06.040Z,37.35
2018-07-01T07:04:06.047Z,37.55
2018-07-01T07:05:05.804Z,37.76
2018-07-01T07:06:06.094Z,37.84
2018-07-01T07:07:06.115Z,37.76
2018-07-01T07:08:06.307Z,37.27
2018-07-01T07:09:05.896Z,37.57
2018-07-01T07:10:05.913Z,36.99
2018-07-01T07:11:06.259Z,37.18
2018-07-01T07:12:06.218Z,37.08
2018-07-01T07:13:05.974Z,36.51
2018-07-01T07:14:06.260Z,36.7
2018-07-01T07:15:06.285Z,36.24
2018-07-01T07:16:06.034Z,36.72
2018-07-01T07:17:06.327Z,36.72
2018-07-01T07:18:06.347Z,36.53
2018-07-01T07:19:06.371Z,36.43
2018-07-01T07:20:06.395Z,36.24
2018-07-01T07:21:06.407Z,36.33
2018-07-01T07:22:06.431Z,36.07
2018-07-01T07:23:06.455Z,35.47
2018-07-01T07:24:06.474Z,35.49
2018-07-01T07:25:06.500Z,35.77
2018-07-01T07:26:06.247Z,35.2
2018-07-01T07:27:06.535Z,35.39
2018-07-01T07:28:06.557Z,35.3
2018-07-01T07:29:06.577Z,35.2
2018-07-01T07:30:06.599Z,34.92
2018-07-01T07:31:06.355Z,34.83
2018-07-01T07:32:06.746Z,33.97
2018-07-01T07:33:06.666Z,33.97
2018-07-01T07:34:06.683Z,34.45
2018-07-01T07:35:06.707Z,34.25
2018-07-01T07:36:06.750Z,33.48
2018-07-01T07:37:06.482Z,33.87
2018-07-01T07:38:06.770Z,33.48
2018-07-01T07:39:06.793Z,33.21
2018-07-01T07:40:06.546Z,32.73
2018-07-01T07:41:06.837Z,33.02
2018-07-01T07:42:06.858Z,32.92
2018-07-01T07:43:06.881Z,33.02
2018-07-01T07:44:06.898Z,32.73
2018-07-01T07:45:06.670Z,33.33
2018-07-01T07:46:06.944Z,32.84
2018-07-01T07:47:06.695Z,32.17
2018-07-01T07:48:06.721Z,32.65
2018-07-01T07:49:07.009Z,32.17
2018-07-01T07:50:06.766Z,31.8
2018-07-01T07:51:07.050Z,31.6
2018-07-01T07:52:06.852Z,31.32
2018-07-01T07:53:07.094Z,31.51
2018-07-01T07:54:07.120Z,31.03
2018-07-01T07:55:07.139Z,30.93
2018-07-01T07:56:07.165Z,30.64
2018-07-01T07:57:06.915Z,30.26
2018-07-01T07:58:07.206Z,30.66
2018-07-01T07:59:07.226Z,30.18
2018-07-01T08:00:07.256Z,30.27
2018-07-01T08:01:07.279Z,30.27
2018-07-01T08:02:07.535Z,29.98
2018-07-01T08:03:07.046Z,29.9
2018-07-01T08:04:07.070Z,29.8
2018-07-01T08:05:07.360Z,29.61
2018-07-01T08:06:07.380Z,29.42
2018-07-01T08:07:07.415Z,29.71
2018-07-01T08:08:07.428Z,30.29
2018-07-01T08:09:07.177Z,30.3
2018-07-01T08:10:07.202Z,29.72
2018-07-01T08:11:07.506Z,29.63
2018-07-01T08:12:07.250Z,29.14
2018-07-01T08:13:07.700Z,28.95
2018-07-01T08:14:07.314Z,29.25
2018-07-01T08:15:07.313Z,28.97
2018-07-01T08:16:07.333Z,28.58
2018-07-01T08:17:07.621Z,28.87
2018-07-01T08:18:07.644Z,28.29
2018-07-01T08:19:07.668Z,27.92
2018-07-01T08:20:07.469Z,27.44
2018-07-01T08:21:07.712Z,27.72
2018-07-01T08:22:07.467Z,27.44
2018-07-01T08:23:07.764Z,27.14
2018-07-01T08:24:07.512Z,27.24
2018-07-01T08:25:07.807Z,26.95
2018-07-01T08:26:07.826Z,27.06
2018-07-01T08:27:07.585Z,26.97
2018-07-01T08:28:07.603Z,26.87
2018-07-01T08:29:07.628Z,27.15
2018-07-01T08:30:07.975Z,26.97
2018-07-01T08:31:07.670Z,26.87
2018-07-01T08:32:07.964Z,26.4
2018-07-01T08:33:07.993Z,26.59
2018-07-01T08:34:07.741Z,26.59
2018-07-01T08:35:08.067Z,26.5
2018-07-01T08:36:08.064Z,26.3
2018-07-01T08:37:07.809Z,26.4
2018-07-01T08:38:07.836Z,26.03
2018-07-01T08:39:07.856Z,26.31
2018-07-01T08:40:07.893Z,25.73
2018-07-01T08:41:08.166Z,25.83
2018-07-01T08:42:07.926Z,24.96
2018-07-01T08:43:08.214Z,24.96
2018-07-01T08:44:08.245Z,24.57
2018-07-01T08:45:07.995Z,24.28
2018-07-01T08:46:08.313Z,24.19
2018-07-01T08:47:08.042Z,24.58
2018-07-01T08:48:08.367Z,24.19
2018-07-01T08:49:08.357Z,24.58
2018-07-01T08:50:08.390Z,24.97
2018-07-01T08:51:08.138Z,25.18
2018-07-01T08:52:08.427Z,24.98
2018-07-01T08:53:08.449Z,24.98
2018-07-01T08:54:08.209Z,25.18
2018-07-01T08:55:08.509Z,24.98
2018-07-01T08:56:08.254Z,25.09
2018-07-01T08:57:08.543Z,24.99
2018-07-01T08:58:08.567Z,24.71
2018-07-01T08:59:08.324Z,23.83
2018-07-01T09:00:08.624Z,23.64
2018-07-01T09:01:08.640Z,23.93
2018-07-01T09:02:08.395Z,24.12
2018-07-01T09:03:08.420Z,23.55
2018-07-01T09:04:08.445Z,22.68
2018-07-01T09:05:08.734Z,22.78
2018-07-01T09:06:08.763Z,22.39
2018-07-01T09:07:08.781Z,22.78
2018-07-01T09:08:08.551Z,22.97
2018-07-01T09:09:08.832Z,23.36
2018-07-01T09:10:08.856Z,22.99
2018-07-01T09:11:08.667Z,22.79
2018-07-01T09:12:08.905Z,22.6
2018-07-01T09:13:08.932Z,22.02
2018-07-01T09:14:08.685Z,22.2
2018-07-01T09:15:08.982Z,21.92
2018-07-01T09:16:09.006Z,21.53
2018-07-01T09:17:08.777Z,21.15
2018-07-01T09:18:08.782Z,21.05
2018-07-01T09:19:09.075Z,20.57
2018-07-01T09:20:09.104Z,20.57
2018-07-01T09:21:09.128Z,20.67
2018-07-01T09:22:09.146Z,20.77
2018-07-01T09:23:09.174Z,20.87
2018-07-01T09:24:08.929Z,21.26
2018-07-01T09:25:09.225Z,21.16
2018-07-01T09:26:08.980Z,20.87
2018-07-01T09:27:09.271Z,21.17
2018-07-01T09:28:09.508Z,20.68
2018-07-01T09:29:09.320Z,20.68
2018-07-01T09:30:09.078Z,20.59
2018-07-01T09:31:09.377Z,19.91
2018-07-01T09:32:09.690Z,19.91
2018-07-01T09:33:09.424Z,19.91
2018-07-01T09:34:09.445Z,20.01
2018-07-01T09:35:09.474Z,19.73
2018-07-01T09:36:09.231Z,19.63
2018-07-01T09:37:09.525Z,20.21
2018-07-01T09:38:09.279Z,20.31
2018-07-01T09:39:09.571Z,20.22
2018-07-01T09:40:09.599Z,19.82
2018-07-01T09:41:09.623Z,20.12
2018-07-01T09:42:09.649Z,20.22
2018-07-01T09:43:09.673Z,19.93
2018-07-01T09:44:09.698Z,20.03
2018-07-01T09:45:09.726Z,19.65
2018-07-01T09:46:09.750Z,19.16
2018-07-01T09:47:09.780Z,18.87
2018-07-01T09:48:09.802Z,18.58
2018-07-01T09:49:09.563Z,18.58
2018-07-01T09:50:09.861Z,18.19
2018-07-01T09:51:09.920Z,18.58
2018-07-01T09:52:09.903Z,18.38
2018-07-01T09:53:09.931Z,17.8
2018-07-01T09:54:09.955Z,17.8
2018-07-01T09:55:09.979Z,17.13
2018-07-01T09:56:09.748Z,17.32
2018-07-01T09:57:10.032Z,17.52
2018-07-01T09:58:10.061Z,17.61
2018-07-01T09:59:10.088Z,18.3
2018-07-01T10:00:09.844Z,18.3
2018-07-01T10:01:10.378Z,18.4
2018-07-01T10:02:10.169Z,18.01
2018-07-01T10:03:10.196Z,17.82
2018-07-01T10:04:10.224Z,18.21
2018-07-01T10:05:10.242Z,18.41
2018-07-01T10:06:10.271Z,17.72
2018-07-01T10:07:10.294Z,17.14
2018-07-01T10:08:10.322Z,16.96
2018-07-01T10:09:10.348Z,16.96
2018-07-01T10:10:10.373Z,17.64
2018-07-01T10:11:10.401Z,17.54
2018-07-01T10:12:10.430Z,17.54
2018-07-01T10:13:10.454Z,17.83
2018-07-01T10:14:10.224Z,17.74
2018-07-01T10:15:10.508Z,17.74
2018-07-01T10:16:10.268Z,17.55
2018-07-01T10:17:10.559Z,17.55
2018-07-01T10:18:10.599Z,17.74
2018-07-01T10:19:10.617Z,17.25
2018-07-01T10:20:10.376Z,17.46
2018-07-01T10:21:10.671Z,16.96
2018-07-01T10:22:10.709Z,16.29
2018-07-01T10:23:10.725Z,16.58
2018-07-01T10:24:10.485Z,16.58
2018-07-01T10:25:10.780Z,16.68
2018-07-01T10:26:10.809Z,16.49
2018-07-01T10:27:10.881Z,16.78
2018-07-01T10:28:10.860Z,16.69
2018-07-01T10:29:10.888Z,16.49
2018-07-01T10:30:10.646Z,16.69
2018-07-01T10:31:10.941Z,16.59
2018-07-01T10:32:10.970Z,16
2018-07-01T10:33:10.737Z,16.02
2018-07-01T10:34:10.759Z,16.02
2018-07-01T10:35:11.051Z,16.11
2018-07-01T10:36:11.080Z,15.82
2018-07-01T10:37:10.849Z,15.43
2018-07-01T10:38:11.136Z,15.23
2018-07-01T10:39:11.164Z,15.44
2018-07-01T10:40:10.944Z,15.53
2018-07-01T10:41:10.951Z,15.83
2018-07-01T10:42:11.242Z,15.92
2018-07-01T10:43:11.274Z,15.83
2018-07-01T10:44:11.301Z,15.83
2018-07-01T10:45:11.331Z,15.73
2018-07-01T10:46:11.091Z,15.44
2018-07-01T10:47:11.393Z,15.15
2018-07-01T10:48:11.410Z,15.15
2018-07-01T10:49:11.443Z,14.86
2018-07-01T10:50:11.470Z,15.44
2018-07-01T10:51:11.526Z,15.25
2018-07-01T10:52:11.527Z,15.15
2018-07-01T10:53:11.555Z,15.05
2018-07-01T10:54:11.582Z,14.76
2018-07-01T10:55:11.614Z,14.95
2018-07-01T10:56:11.376Z,15.16
2018-07-01T10:57:11.668Z,15.06
2018-07-01T10:58:11.698Z,14.48
2018-07-01T10:59:11.724Z,13.98
2018-07-01T11:00:11.757Z,14.18
2018-07-01T11:01:11.780Z,14.28
2018-07-01T11:02:11.541Z,14.48
2018-07-01T11:03:11.574Z,14.48
2018-07-01T11:04:11.871Z,14.28
2018-07-01T11:05:11.628Z,14.09
2018-07-01T11:06:12.186Z,13.89
2018-07-01T11:07:11.690Z,13.9
2018-07-01T11:08:11.985Z,13.9
2018-07-01T11:09:12.014Z,13.8
2018-07-01T11:10:12.044Z,13.31
2018-07-01T11:11:12.078Z,13.12
2018-07-01T11:12:12.099Z,12.83
2018-07-01T11:13:12.159Z,12.93
2018-07-01T11:14:11.890Z,12.43
2018-07-01T11:15:11.923Z,12.54
2018-07-01T11:16:12.218Z,12.14
2018-07-01T11:17:12.244Z,12.23
2018-07-01T11:18:12.277Z,12.82
2018-07-01T11:19:12.303Z,13.51
2018-07-01T11:20:12.108Z,13.31
2018-07-01T11:21:12.364Z,13.51
2018-07-01T11:22:12.394Z,13.71
2018-07-01T11:23:12.420Z,13.9
2018-07-01T11:24:12.454Z,13.9
2018-07-01T11:25:12.481Z,13.61
2018-07-01T11:26:12.517Z,13.71
2018-07-01T11:27:12.982Z,13.71
2018-07-01T11:28:12.571Z,13.51
2018-07-01T11:29:12.599Z,13.02
2018-07-01T11:30:12.362Z,12.74
2018-07-01T11:31:12.391Z,12.74
2018-07-01T11:32:12.690Z,12.44
2018-07-01T11:33:12.457Z,12.44
2018-07-01T11:34:12.754Z,12.44
2018-07-01T11:35:13.055Z,12.74
2018-07-01T11:36:12.544Z,12.54
2018-07-01T11:37:12.572Z,12.45
2018-07-01T11:38:13.062Z,12.34
2018-07-01T11:39:12.903Z,12.45
2018-07-01T11:40:12.927Z,12.45
2018-07-01T11:41:12.957Z,11.96
2018-07-01T11:42:12.717Z,12.16
2018-07-01T11:43:13.021Z,11.96
2018-07-01T11:44:13.048Z,11.57
2018-07-01T11:45:13.077Z,11.97
2018-07-01T11:46:12.841Z,11.97
2018-07-01T11:47:12.870Z,11.68
2018-07-01T11:48:13.167Z,11.38
2018-07-01T11:49:13.208Z,11.38
2018-07-01T11:50:13.232Z,11.19
2018-07-01T11:51:13.260Z,11.49
2018-07-01T11:52:13.339Z,11.38
2018-07-01T11:53:13.326Z,11.58
2018-07-01T11:54:13.368Z,11.49
2018-07-01T11:55:13.382Z,11.59
2018-07-01T11:56:13.412Z,11.59
2018-07-01T11:57:13.178Z,11.49
2018-07-01T11:58:13.493Z,11.19
2018-07-01T11:59:13.508Z,11.19
2018-07-01T12:00:13.539Z,11.29
2018-07-01T12:01:13.300Z,11.49
2018-07-01T12:02:13.600Z,11.58
2018-07-01T12:03:13.632Z,11.39
2018-07-01T12:04:13.663Z,11.59
2018-07-01T12:05:19.573Z,11.59
2018-07-01T12:06:13.721Z,11.69
2018-07-01T12:07:13.760Z,11.79
2018-07-01T12:08:13.784Z,11.58
2018-07-01T12:09:13.815Z,11.29
2018-07-01T12:10:13.848Z,11.38
2018-07-01T12:11:13.883Z,10.89
2018-07-01T12:12:13.909Z,11.29
2018-07-01T12:13:13.936Z,11.49
2018-07-01T12:14:13.971Z,11.58
2018-07-01T12:15:14.009Z,11.29
2018-07-01T12:16:14.034Z,11.09
2018-07-01T12:17:14.066Z,11.1
2018-07-01T12:18:14.095Z,11
2018-07-01T12:19:14.124Z,10.61
2018-07-01T12:20:14.165Z,10.61
2018-07-01T12:21:13.923Z,10.31
2018-07-01T12:22:14.222Z,10.71
2018-07-01T12:23:14.309Z,10.41
2018-07-01T12:24:14.284Z,10.51
2018-07-01T12:25:14.318Z,10.02
2018-07-01T12:26:14.344Z,10.21
2018-07-01T12:27:14.381Z,10.31
2018-07-01T12:28:14.419Z,9.92
2018-07-01T12:29:14.442Z,9.92
2018-07-01T12:30:14.497Z,9.83
2018-07-01T12:31:14.503Z,9.92
2018-07-01T12:32:14.536Z,9.73
2018-07-01T12:33:14.569Z,9.44
2018-07-01T12:34:14.602Z,9.44
2018-07-01T12:35:14.633Z,9.53
2018-07-01T12:36:14.394Z,9.34
2018-07-01T12:37:14.700Z,9.44
2018-07-01T12:38:14.729Z,9.14
2018-07-01T12:39:14.759Z,8.94
2018-07-01T12:40:14.789Z,9.25
2018-07-01T12:41:14.821Z,9.34
2018-07-01T12:42:15.227Z,9.54
2018-07-01T12:43:14.888Z,9.34
2018-07-01T12:44:14.652Z,9.05
2018-07-01T12:45:14.953Z,9.05
2018-07-01T12:46:14.980Z,9.14
2018-07-01T12:47:15.012Z,9.25
2018-07-01T12:48:15.046Z,8.85
2018-07-01T12:49:14.809Z,8.86
2018-07-01T12:50:14.844Z,8.76
2018-07-01T12:51:15.143Z,8.66
2018-07-01T12:52:14.909Z,8.26
2018-07-01T12:53:15.206Z,8.07
2018-07-01T12:54:15.235Z,8.27
2018-07-01T12:55:15.276Z,8.17
2018-07-01T12:56:15.440Z,8.27
2018-07-01T12:57:15.337Z,8.07
2018-07-01T12:58:15.367Z,7.98
2018-07-01T12:59:15.397Z,8.17
2018-07-01T13:00:15.442Z,7.98